Time;durP1;ratioP1;P1;durP2;ratioP2;P2;SDS_P1;SDS_P2;PMS_P1;PMS_P2;Temp;Humidity;BMP_temperature;BMP_pressure;BME280_temperature;BME280_humidity;BME280_pressure;Samples;Min_cycle;Max_cycle;Signal;HPM_P1;HPM_P2
2023/04/09 00:03:15;;;;;;;;;;;18.20;46.70;;;;;;10325612;28;1906;-77
2023/04/09 00:08:11;;;;;;;;;;;18.20;46.80;;;;;;10324769;28;836;-77
2023/04/09 00:13:06;;;;;;;;;;;18.20;46.80;;;;;;10325179;28;782;-77
2023/04/09 00:18:02;;;;;;;;;;;18.20;46.80;;;;;;10324525;28;885;-77
2023/04/09 00:22:57;;;;;;;;;;;18.20;46.80;;;;;;10324296;28;1967;-77
2023/04/09 00:27:52;;;;;;;;;;;18.20;46.70;;;;;;10325124;28;1081;-77
2023/04/09 00:32:48;;;;;;;;;;;18.10;46.80;;;;;;10324811;28;949;-77
2023/04/09 00:37:43;;;;;;;;;;;18.10;46.80;;;;;;10329152;28;773;-77
2023/04/09 00:42:39;;;;;;;;;;;18.10;46.80;;;;;;10331365;28;1902;-77
2023/04/09 00:47:34;;;;;;;;;;;18.20;46.70;;;;;;10331248;28;898;-77
2023/04/09 00:52:30;;;;;;;;;;;18.10;46.70;;;;;;10331677;28;866;-77
2023/04/09 00:57:27;;;;;;;;;;;18.20;46.70;;;;;;10331902;28;1160;-77
2023/04/09 01:02:22;;;;;;;;;;;18.20;46.60;;;;;;10331008;28;1967;-77
2023/04/09 01:07:18;;;;;;;;;;;18.20;46.60;;;;;;10330028;28;1054;-77
2023/04/09 01:12:13;;;;;;;;;;;18.10;46.60;;;;;;10331050;28;855;-77
2023/04/09 01:17:09;;;;;;;;;;;18.10;46.70;;;;;;10330191;28;858;-77
2023/04/09 01:22:04;;;;;;;;;;;18.10;46.70;;;;;;10330007;28;861;-77
2023/04/09 01:27:00;;;;;;;;;;;18.10;46.70;;;;;;10329681;28;1975;-77
2023/04/09 01:31:55;;;;;;;;;;;18.10;46.60;;;;;;10329646;28;846;-77
2023/04/09 01:36:51;;;;;;;;;;;18.10;46.70;;;;;;10330019;28;885;-77
2023/04/09 01:41:46;;;;;;;;;;;18.10;46.70;;;;;;10329244;28;917;-77
2023/04/09 01:46:41;;;;;;;;;;;18.10;46.70;;;;;;10328704;28;1980;-77
2023/04/09 01:51:37;;;;;;;;;;;18.10;46.60;;;;;;10328811;28;862;-77
2023/04/09 01:56:32;;;;;;;;;;;18.10;46.60;;;;;;10328299;28;1380;-77
2023/04/09 02:01:27;;;;;;;;;;;18.10;46.60;;;;;;10329003;28;807;-77
2023/04/09 02:06:23;;;;;;;;;;;18.10;46.60;;;;;;10328158;28;1979;-77
2023/04/09 02:11:18;;;;;;;;;;;18.10;46.60;;;;;;10328037;28;921;-77
2023/04/09 02:16:14;;;;;;;;;;;18.10;46.70;;;;;;10327804;28;897;-77
2023/04/09 02:21:12;;;;;;;;;;;18.10;46.60;;;;;;10328121;28;969;-77
2023/04/09 02:26:07;;;;;;;;;;;18.10;46.60;;;;;;10327358;28;1902;-77
2023/04/09 02:31:03;;;;;;;;;;;18.10;46.60;;;;;;10327279;28;857;-77
2023/04/09 02:35:58;;;;;;;;;;;18.00;46.60;;;;;;10327087;28;916;-77
2023/04/09 02:40:53;;;;;;;;;;;18.00;46.60;;;;;;10326858;28;912;-77
2023/04/09 02:45:49;;;;;;;;;;;18.00;46.60;;;;;;10326645;28;1910;-77
2023/04/09 02:50:45;;;;;;;;;;;18.00;46.70;;;;;;10326442;28;1040;-78
2023/04/09 02:55:40;;;;;;;;;;;18.00;46.60;;;;;;10326328;28;1381;-77
2023/04/09 03:00:35;;;;;;;;;;;18.00;46.60;;;;;;10326814;28;880;-78
2023/04/09 03:05:31;;;;;;;;;;;18.10;46.60;;;;;;10326111;28;1983;-77
2023/04/09 03:10:26;;;;;;;;;;;18.10;46.50;;;;;;10325979;28;771;-77
2023/04/09 03:15:21;;;;;;;;;;;18.10;46.60;;;;;;10326408;28;864;-78
2023/04/09 03:20:17;;;;;;;;;;;18.00;46.50;;;;;;10326308;28;936;-77
2023/04/09 03:25:12;;;;;;;;;;;18.00;46.50;;;;;;10325798;28;1963;-77
2023/04/09 03:30:08;;;;;;;;;;;18.00;46.50;;;;;;10325854;28;845;-77
2023/04/09 03:35:03;;;;;;;;;;;18.00;46.50;;;;;;10325353;28;883;-77
2023/04/09 03:39:58;;;;;;;;;;;18.10;46.50;;;;;;10325335;28;830;-77
2023/04/09 03:44:54;;;;;;;;;;;18.00;46.50;;;;;;10325125;28;1961;-78
2023/04/09 03:49:49;;;;;;;;;;;18.00;46.50;;;;;;10324518;28;886;-77
2023/04/09 03:54:44;;;;;;;;;;;18.00;46.50;;;;;;10324417;28;1138;-77
2023/04/09 03:59:40;;;;;;;;;;;18.00;46.50;;;;;;10325079;28;830;-77
2023/04/09 04:04:35;;;;;;;;;;;18.00;46.50;;;;;;10324180;28;1898;-77
2023/04/09 04:09:30;;;;;;;;;;;18.00;46.50;;;;;;10324765;28;948;-77
2023/04/09 04:14:26;;;;;;;;;;;18.00;46.50;;;;;;10332549;28;924;-77
2023/04/09 04:19:21;;;;;;;;;;;18.00;46.40;;;;;;10333003;28;829;-77
2023/04/09 04:24:17;;;;;;;;;;;18.00;46.40;;;;;;10332146;28;1957;-77
2023/04/09 04:29:12;;;;;;;;;;;18.00;46.40;;;;;;10332630;28;825;-77
2023/04/09 04:34:07;;;;;;;;;;;18.00;46.30;;;;;;10331851;28;767;-78
2023/04/09 04:39:03;;;;;;;;;;;18.10;46.30;;;;;;10331654;28;849;-77
2023/04/09 04:43:58;;;;;;;;;;;18.10;46.20;;;;;;10331333;28;1906;-77
2023/04/09 04:48:53;;;;;;;;;;;18.10;46.20;;;;;;10331311;28;774;-77
2023/04/09 04:53:49;;;;;;;;;;;18.10;46.30;;;;;;10331767;28;1057;-77
2023/04/09 04:58:46;;;;;;;;;;;18.10;46.20;;;;;;10331535;28;1321;-78
2023/04/09 05:03:41;;;;;;;;;;;18.10;46.20;;;;;;10331212;28;1909;-77
2023/04/09 05:08:36;;;;;;;;;;;18.10;46.10;;;;;;10331165;28;909;-77
2023/04/09 05:13:32;;;;;;;;;;;18.10;46.20;;;;;;10330399;28;760;-77
2023/04/09 05:18:27;;;;;;;;;;;18.10;46.10;;;;;;10330901;28;916;-77
2023/04/09 05:23:22;;;;;;;;;;;18.10;46.10;;;;;;10329351;28;1898;-77
2023/04/09 05:28:18;;;;;;;;;;;18.10;46.10;;;;;;10331070;28;877;-77
2023/04/09 05:33:13;;;;;;;;;;;18.10;46.10;;;;;;10330293;28;770;-78
2023/04/09 05:38:09;;;;;;;;;;;18.10;46.10;;;;;;10328874;28;964;-78
2023/04/09 05:43:05;;;;;;;;;;;18.10;46.10;;;;;;10329188;28;1969;-77
2023/04/09 05:48:00;;;;;;;;;;;18.10;46.10;;;;;;10329094;28;755;-77
2023/04/09 05:52:55;;;;;;;;;;;18.10;46.10;;;;;;10329488;28;801;-77
2023/04/09 05:57:51;;;;;;;;;;;18.10;46.10;;;;;;10348210;28;1140;-77
2023/04/09 06:02:47;;;;;;;;;;;18.10;46.00;;;;;;10368317;28;1909;-78
2023/04/09 06:07:42;;;;;;;;;;;18.10;46.00;;;;;;10368902;28;773;-78
2023/04/09 06:12:37;;;;;;;;;;;18.10;46.00;;;;;;10368764;28;821;-78
2023/04/09 06:17:33;;;;;;;;;;;18.10;45.90;;;;;;10369783;28;896;-77
2023/04/09 06:22:28;;;;;;;;;;;18.10;46.10;;;;;;10368978;28;1957;-78
2023/04/09 06:27:23;;;;;;;;;;;18.10;46.10;;;;;;10369288;28;894;-78
2023/04/09 06:32:19;;;;;;;;;;;18.10;46.10;;;;;;10368889;28;1678;-78
2023/04/09 06:37:14;;;;;;;;;;;18.10;46.10;;;;;;10368742;28;920;-78
2023/04/09 06:42:10;;;;;;;;;;;18.10;45.90;;;;;;10369180;28;872;-78
2023/04/09 06:47:07;;;;;;;;;;;18.10;46.00;;;;;;10367865;28;1898;-78
2023/04/09 06:52:02;;;;;;;;;;;18.10;46.10;;;;;;10368009;28;849;-78
2023/04/09 06:56:58;;;;;;;;;;;18.10;46.00;;;;;;10344184;28;1354;-79
2023/04/09 07:01:53;;;;;;;;;;;18.10;46.00;;;;;;10325593;28;1173;-78
2023/04/09 07:06:50;;;;;;;;;;;18.10;46.10;;;;;;10325425;28;1906;-78
2023/04/09 07:11:45;;;;;;;;;;;18.10;46.00;;;;;;10325977;28;1073;-64
2023/04/09 07:16:41;;;;;;;;;;;18.20;46.20;;;;;;10326480;28;797;-65
2023/04/09 07:21:37;;;;;;;;;;;18.20;46.60;;;;;;10326309;28;886;-65
2023/04/09 07:26:32;;;;;;;;;;;18.30;46.70;;;;;;10326544;28;1965;-65
2023/04/09 07:31:27;;;;;;;;;;;18.30;46.70;;;;;;10325673;28;858;-65
2023/04/09 07:36:23;;;;;;;;;;;18.20;47.00;;;;;;10325454;28;873;-65
2023/04/09 07:41:18;;;;;;;;;;;18.30;47.20;;;;;;10325227;28;978;-67
2023/04/09 07:46:14;;;;;;;;;;;18.40;47.50;;;;;;10327515;28;1953;-68
2023/04/09 07:51:10;;;;;;;;;;;18.40;47.70;;;;;;10334255;28;845;-66
2023/04/09 07:56:05;;;;;;;;;;;18.40;47.60;;;;;;10333579;28;1485;-66
2023/04/09 08:01:00;;;;;;;;;;;18.50;47.60;;;;;;10333207;28;914;-67
2023/04/09 08:05:56;;;;;;;;;;;18.40;47.70;;;;;;10333496;28;1981;-67
2023/04/09 08:10:51;;;;;;;;;;;18.40;47.70;;;;;;10332803;28;879;-67
2023/04/09 08:15:47;;;;;;;;;;;18.40;47.90;;;;;;10332104;28;908;-67
2023/04/09 08:20:44;;;;;;;;;;;18.40;47.90;;;;;;10331843;28;833;-67
2023/04/09 08:25:39;;;;;;;;;;;18.40;48.00;;;;;;10332082;28;1906;-67
2023/04/09 08:30:35;;;;;;;;;;;18.30;48.00;;;;;;10332090;28;809;-67
2023/04/09 08:35:30;;;;;;;;;;;18.40;48.00;;;;;;10332054;28;786;-68
2023/04/09 08:40:25;;;;;;;;;;;18.30;48.00;;;;;;10331695;28;766;-67
2023/04/09 08:45:21;;;;;;;;;;;18.40;48.20;;;;;;10331412;28;1965;-67
2023/04/09 08:50:16;;;;;;;;;;;18.40;48.30;;;;;;10331868;28;840;-68
2023/04/09 08:55:12;;;;;;;;;;;18.40;48.30;;;;;;10331522;28;1301;-67
2023/04/09 09:00:07;;;;;;;;;;;18.40;48.40;;;;;;10331326;28;915;-67
2023/04/09 09:05:03;;;;;;;;;;;18.40;48.20;;;;;;10331096;28;1965;-67
2023/04/09 09:09:58;;;;;;;;;;;18.40;48.20;;;;;;10331191;28;814;-67
2023/04/09 09:14:54;;;;;;;;;;;18.40;48.20;;;;;;10329799;28;1173;-67
2023/04/09 09:19:49;;;;;;;;;;;18.50;47.90;;;;;;10330248;28;805;-67
2023/04/09 09:24:46;;;;;;;;;;;18.50;48.00;;;;;;10330115;28;1902;-67
2023/04/09 09:29:43;;;;;;;;;;;18.50;47.90;;;;;;10329796;28;786;-65
2023/04/09 09:34:39;;;;;;;;;;;18.50;47.70;;;;;;10329013;28;926;-67
2023/04/09 09:39:34;;;;;;;;;;;18.50;47.70;;;;;;10329516;28;770;-67
2023/04/09 09:44:30;;;;;;;;;;;18.50;47.60;;;;;;10329200;28;1906;-67
2023/04/09 09:49:25;;;;;;;;;;;18.50;47.50;;;;;;10329112;28;794;-67
2023/04/09 09:54:20;;;;;;;;;;;18.50;47.40;;;;;;10329220;28;1172;-67
2023/04/09 09:59:16;;;;;;;;;;;18.50;47.40;;;;;;10329502;28;811;-67
2023/04/09 10:04:12;;;;;;;;;;;18.40;47.50;;;;;;10328371;28;1917;-67
2023/04/09 10:09:07;;;;;;;;;;;18.50;47.40;;;;;;10327538;28;893;-67
2023/04/09 10:14:04;;;;;;;;;;;18.50;47.30;;;;;;10328087;28;923;-67
2023/04/09 10:18:59;;;;;;;;;;;18.50;47.30;;;;;;10328424;28;960;-67
2023/04/09 10:23:55;;;;;;;;;;;18.50;47.40;;;;;;10327555;28;1910;-67
2023/04/09 10:28:50;;;;;;;;;;;18.40;47.40;;;;;;10328083;28;941;-68
2023/04/09 10:33:45;;;;;;;;;;;18.50;47.30;;;;;;10327973;28;859;-67
2023/04/09 10:38:41;;;;;;;;;;;18.50;47.20;;;;;;10327080;28;857;-68
2023/04/09 10:43:36;;;;;;;;;;;18.50;47.10;;;;;;10326740;28;1906;-71
2023/04/09 10:48:32;;;;;;;;;;;18.60;47.20;;;;;;10326714;28;770;-71
2023/04/09 10:53:28;;;;;;;;;;;18.50;47.30;;;;;;10327111;28;924;-71
2023/04/09 10:58:23;;;;;;;;;;;18.50;47.10;;;;;;10325649;28;1246;-71
2023/04/09 11:03:19;;;;;;;;;;;18.60;47.20;;;;;;10326160;28;2039;-71
2023/04/09 11:08:14;;;;;;;;;;;18.60;47.10;;;;;;10326750;28;878;-71
2023/04/09 11:13:10;;;;;;;;;;;18.60;47.10;;;;;;10325984;28;774;-71
2023/04/09 11:18:12;;;;;;;;;;;18.60;47.10;;;;;;10325867;28;856;-71
2023/04/09 11:23:08;;;;;;;;;;;18.60;47.20;;;;;;10325610;28;1953;-71
2023/04/09 11:28:03;;;;;;;;;;;18.60;47.20;;;;;;10325627;28;933;-73
2023/04/09 11:32:59;;;;;;;;;;;18.60;47.20;;;;;;10325519;28;770;-67
2023/04/09 11:37:54;;;;;;;;;;;18.60;47.30;;;;;;10325991;28;865;-71
2023/04/09 11:42:50;;;;;;;;;;;18.50;47.20;;;;;;10324947;28;1894;-72
2023/04/09 11:47:46;;;;;;;;;;;18.50;46.90;;;;;;10325625;28;858;-72
2023/04/09 11:52:41;;;;;;;;;;;18.60;46.70;;;;;;10324267;28;1003;-72
2023/04/09 11:57:37;;;;;;;;;;;18.60;46.70;;;;;;10325072;28;1171;-68
2023/04/09 12:02:32;;;;;;;;;;;18.60;46.70;;;;;;10324716;28;1910;-70
2023/04/09 12:07:28;;;;;;;;;;;18.60;46.60;;;;;;10325112;28;868;-72
2023/04/09 12:12:23;;;;;;;;;;;18.60;46.70;;;;;;10324540;28;859;-71
2023/04/09 12:17:18;;;;;;;;;;;18.60;46.60;;;;;;10324388;28;801;-72
2023/04/09 12:22:14;;;;;;;;;;;18.70;46.70;;;;;;10324310;28;888;-72
2023/04/09 12:27:09;;;;;;;;;;;18.70;46.80;;;;;;10324660;28;1910;-72
2023/04/09 12:32:05;;;;;;;;;;;18.70;46.70;;;;;;10326542;28;779;-72
2023/04/09 12:37:00;;;;;;;;;;;18.80;46.70;;;;;;10331615;28;770;-72
2023/04/09 12:41:56;;;;;;;;;;;18.70;46.70;;;;;;10331977;28;822;-73
2023/04/09 12:46:51;;;;;;;;;;;18.70;46.80;;;;;;10331156;28;1906;-72
2023/04/09 12:51:47;;;;;;;;;;;18.80;46.80;;;;;;10331664;28;822;-72
2023/04/09 12:56:42;;;;;;;;;;;18.80;46.70;;;;;;10331309;28;1404;-73
2023/04/09 13:01:38;;;;;;;;;;;18.80;46.70;;;;;;10330758;28;940;-72
2023/04/09 13:06:33;;;;;;;;;;;18.80;46.70;;;;;;10330446;28;1917;-72
2023/04/09 13:11:28;;;;;;;;;;;18.80;46.70;;;;;;10330990;28;853;-72
2023/04/09 13:16:24;;;;;;;;;;;18.90;46.70;;;;;;10330310;28;929;-72
2023/04/09 13:21:20;;;;;;;;;;;18.90;46.60;;;;;;10330582;28;884;-72
2023/04/09 13:26:15;;;;;;;;;;;18.90;46.70;;;;;;10330388;28;1906;-71
2023/04/09 13:31:11;;;;;;;;;;;18.80;47.30;;;;;;10330491;28;859;-72
2023/04/09 13:36:06;;;;;;;;;;;18.90;46.70;;;;;;10329703;28;834;-72
2023/04/09 13:41:02;;;;;;;;;;;18.90;46.60;;;;;;10330137;28;850;-72
2023/04/09 13:45:57;;;;;;;;;;;18.90;46.70;;;;;;10328162;28;1969;-72
2023/04/09 13:50:52;;;;;;;;;;;18.90;46.70;;;;;;10329108;28;951;-73
2023/04/09 13:55:48;;;;;;;;;;;18.90;46.60;;;;;;10328945;28;1145;-72
2023/04/09 14:00:43;;;;;;;;;;;18.90;46.70;;;;;;10329355;28;858;-72
2023/04/09 14:05:39;;;;;;;;;;;19.00;46.80;;;;;;10329020;28;1918;-73
2023/04/09 14:10:34;;;;;;;;;;;19.10;46.80;;;;;;10328265;28;812;-73
2023/04/09 14:15:29;;;;;;;;;;;19.10;46.90;;;;;;10328743;28;917;-73
2023/04/09 14:20:25;;;;;;;;;;;19.10;46.90;;;;;;10327274;28;857;-73
2023/04/09 14:25:20;;;;;;;;;;;19.00;46.90;;;;;;10327590;28;1898;-73
2023/04/09 14:30:16;;;;;;;;;;;19.20;46.80;;;;;;10327465;28;963;-74
2023/04/09 14:35:12;;;;;;;;;;;19.30;46.80;;;;;;10328090;28;1034;-78
2023/04/09 14:40:07;;;;;;;;;;;19.30;46.70;;;;;;10327083;28;989;-74
2023/04/09 14:45:03;;;;;;;;;;;19.30;46.60;;;;;;10326833;28;1975;-73
2023/04/09 14:49:58;;;;;;;;;;;19.20;46.80;;;;;;10326823;28;882;-73
2023/04/09 14:54:53;;;;;;;;;;;19.20;46.80;;;;;;10326676;28;1294;-73
2023/04/09 14:59:49;;;;;;;;;;;19.30;46.70;;;;;;10327145;28;866;-73
2023/04/09 15:04:44;;;;;;;;;;;19.30;46.90;;;;;;10326728;28;1918;-73
2023/04/09 15:09:40;;;;;;;;;;;19.30;46.70;;;;;;10326702;28;842;-73
2023/04/09 15:14:35;;;;;;;;;;;19.20;46.90;;;;;;10326002;28;910;-73
2023/04/09 15:19:31;;;;;;;;;;;19.40;46.70;;;;;;10325839;28;799;-73
2023/04/09 15:24:26;;;;;;;;;;;19.40;46.60;;;;;;10326129;28;1906;-74
2023/04/09 15:29:22;;;;;;;;;;;19.40;46.80;;;;;;10325617;28;769;-74
2023/04/09 15:34:17;;;;;;;;;;;19.40;46.80;;;;;;10325631;28;844;-71
2023/04/09 15:39:13;;;;;;;;;;;19.50;46.70;;;;;;10325366;28;959;-74
2023/04/09 15:44:08;;;;;;;;;;;19.50;47.30;;;;;;10325817;28;1906;-72
2023/04/09 15:49:03;;;;;;;;;;;19.40;46.70;;;;;;10326163;28;851;-73
2023/04/09 15:53:59;;;;;;;;;;;19.30;46.80;;;;;;10325708;28;858;-73
2023/04/09 15:58:54;;;;;;;;;;;19.30;46.70;;;;;;10325549;28;1183;-73
2023/04/09 16:03:51;;;;;;;;;;;19.30;46.80;;;;;;10324317;28;1913;-73
2023/04/09 16:08:46;;;;;;;;;;;19.30;46.80;;;;;;10330241;28;979;-73
2023/04/09 16:13:41;;;;;;;;;;;19.30;46.80;;;;;;10333657;28;828;-73
2023/04/09 16:18:37;;;;;;;;;;;19.20;46.70;;;;;;10332695;28;770;-74
2023/04/09 16:23:32;;;;;;;;;;;19.30;46.30;;;;;;10331720;28;1882;-74
2023/04/09 16:28:31;;;;;;;;;;;19.20;46.00;;;;;;10332291;28;946;-74
2023/04/09 16:33:26;;;;;;;;;;;19.20;46.10;;;;;;10332648;28;893;-74
2023/04/09 16:38:23;;;;;;;;;;;19.30;46.20;;;;;;10332439;28;814;-74
2023/04/09 16:43:18;;;;;;;;;;;19.20;46.20;;;;;;10331564;28;1914;-74
2023/04/09 16:48:14;;;;;;;;;;;19.30;46.30;;;;;;10332074;28;993;-74
2023/04/09 16:53:09;;;;;;;;;;;19.20;46.30;;;;;;10331887;28;899;-74
2023/04/09 16:58:05;;;;;;;;;;;19.30;46.30;;;;;;10330978;28;1301;-71
2023/04/09 17:03:00;;;;;;;;;;;19.30;46.30;;;;;;10330938;28;1976;-72
2023/04/09 17:07:56;;;;;;;;;;;19.30;46.30;;;;;;10331453;28;880;-71
2023/04/09 17:12:51;;;;;;;;;;;19.20;46.30;;;;;;10331193;28;864;-70
2023/04/09 17:17:50;;;;;;;;;;;19.20;46.30;;;;;;10330289;28;817;-71
2023/04/09 17:22:45;;;;;;;;;;;19.30;46.30;;;;;;10330170;28;1910;-71
2023/04/09 17:27:42;;;;;;;;;;;19.20;46.20;;;;;;10330013;28;891;-71
2023/04/09 17:32:42;;;;;;;;;;;19.20;46.20;;;;;;10329858;28;838;-71
2023/04/09 17:37:38;;;;;;;;;;;19.20;45.90;;;;;;10330270;28;785;-71
2023/04/09 17:42:33;;;;;;;;;;;19.20;45.80;;;;;;10330079;28;823;-71
2023/04/09 17:47:29;;;;;;;;;;;19.20;45.80;;;;;;10329252;28;1894;-71
2023/04/09 17:52:24;;;;;;;;;;;19.20;45.70;;;;;;10329085;28;823;-71
2023/04/09 17:57:19;;;;;;;;;;;19.30;45.90;;;;;;10330967;28;1425;-71
2023/04/09 18:02:15;;;;;;;;;;;19.30;45.90;;;;;;10328111;28;996;-71
2023/04/09 18:07:10;;;;;;;;;;;19.30;45.90;;;;;;10328446;28;1909;-71
2023/04/09 18:12:06;;;;;;;;;;;19.30;46.00;;;;;;10329152;28;878;-71
2023/04/09 18:17:01;;;;;;;;;;;19.20;45.80;;;;;;10328907;28;773;-71
2023/04/09 18:21:56;;;;;;;;;;;19.30;45.90;;;;;;10327868;28;825;-71
2023/04/09 18:26:52;;;;;;;;;;;19.20;45.80;;;;;;10327112;28;1898;-71
2023/04/09 18:31:47;;;;;;;;;;;19.20;45.90;;;;;;10326653;28;751;-72
2023/04/09 18:36:43;;;;;;;;;;;19.20;45.80;;;;;;10327794;28;867;-72
2023/04/09 18:41:38;;;;;;;;;;;19.20;45.80;;;;;;10327102;28;939;-72
2023/04/09 18:46:33;;;;;;;;;;;19.20;45.80;;;;;;10327154;28;1898;-72
2023/04/09 18:51:30;;;;;;;;;;;19.30;45.90;;;;;;10325911;28;953;-72
2023/04/09 18:56:27;;;;;;;;;;;19.20;45.70;;;;;;10326286;28;1135;-72
2023/04/09 19:01:23;;;;;;;;;;;19.20;45.60;;;;;;10326674;28;797;-72
2023/04/09 19:06:18;;;;;;;;;;;19.30;45.80;;;;;;10325293;28;1973;-72
2023/04/09 19:11:14;;;;;;;;;;;19.20;45.60;;;;;;10326535;28;883;-72
2023/04/09 19:16:09;;;;;;;;;;;19.30;45.70;;;;;;10326497;28;746;-71
2023/04/09 19:21:05;;;;;;;;;;;19.30;45.70;;;;;;10326233;28;890;-71
2023/04/09 19:26:00;;;;;;;;;;;19.20;45.60;;;;;;10325405;28;1967;-71
2023/04/09 19:30:57;;;;;;;;;;;19.30;45.70;;;;;;10325308;28;977;-71
2023/04/09 19:35:52;;;;;;;;;;;19.20;45.60;;;;;;10324680;28;1019;-72
2023/04/09 19:40:47;;;;;;;;;;;19.30;45.60;;;;;;10324204;28;821;-71
2023/04/09 19:45:43;;;;;;;;;;;19.30;45.60;;;;;;10325594;28;1972;-72
2023/04/09 19:50:42;;;;;;;;;;;19.20;45.60;;;;;;10325018;28;926;-71
2023/04/09 19:55:37;;;;;;;;;;;19.30;45.70;;;;;;10324683;28;1093;-71
2023/04/09 20:00:33;;;;;;;;;;;19.20;45.50;;;;;;10325939;28;877;-71
2023/04/09 20:05:28;;;;;;;;;;;19.20;45.60;;;;;;10325222;28;1921;-71
2023/04/09 20:10:23;;;;;;;;;;;19.20;45.70;;;;;;10325166;28;817;-71
2023/04/09 20:15:19;;;;;;;;;;;19.20;45.70;;;;;;10324504;28;942;-71
2023/04/09 20:20:18;;;;;;;;;;;19.20;45.60;;;;;;10324523;28;845;-71
2023/04/09 20:25:14;;;;;;;;;;;19.20;45.70;;;;;;10324249;28;1969;-71
2023/04/09 20:30:09;;;;;;;;;;;19.20;45.60;;;;;;10324839;28;832;-71
2023/04/09 20:35:07;;;;;;;;;;;19.20;45.70;;;;;;10324793;28;859;-71
2023/04/09 20:40:02;;;;;;;;;;;19.20;45.70;;;;;;10324548;28;894;-71
2023/04/09 20:44:58;;;;;;;;;;;19.20;45.70;;;;;;10323802;28;1910;-71
2023/04/09 20:49:58;;;;;;;;;;;19.10;45.60;;;;;;10324417;28;877;-71
2023/04/09 20:54:53;;;;;;;;;;;19.10;45.60;;;;;;10329362;28;1230;-71
2023/04/09 20:59:49;;;;;;;;;;;19.10;45.70;;;;;;10330915;28;797;-71
2023/04/09 21:04:44;;;;;;;;;;;19.10;45.70;;;;;;10330719;28;1918;-71
2023/04/09 21:09:39;;;;;;;;;;;19.00;45.70;;;;;;10330569;28;904;-71
2023/04/09 21:14:35;;;;;;;;;;;19.00;45.80;;;;;;10330507;28;802;-71
2023/04/09 21:19:30;;;;;;;;;;;19.10;45.90;;;;;;10330164;28;868;-71
2023/04/09 21:24:26;;;;;;;;;;;19.00;45.80;;;;;;10329656;28;1902;-71
2023/04/09 21:29:22;;;;;;;;;;;19.00;45.90;;;;;;10330417;28;942;-71
2023/04/09 21:34:17;;;;;;;;;;;19.00;46.00;;;;;;10329585;28;871;-71
2023/04/09 21:39:12;;;;;;;;;;;19.00;46.00;;;;;;10329415;28;758;-71
2023/04/09 21:44:08;;;;;;;;;;;18.90;46.00;;;;;;10330190;28;1902;-71
2023/04/09 21:49:03;;;;;;;;;;;18.90;46.00;;;;;;10328412;28;897;-71
2023/04/09 21:53:58;;;;;;;;;;;18.90;46.00;;;;;;10329422;28;855;-71
2023/04/09 21:58:54;;;;;;;;;;;18.90;46.00;;;;;;10329765;28;1231;-72
2023/04/09 22:03:50;;;;;;;;;;;18.90;46.00;;;;;;10327702;28;1976;-82
2023/04/09 22:08:48;;;;;;;;;;;19.00;46.60;;;;;;10328497;28;905;-81
2023/04/09 22:13:44;;;;;;;;;;;19.00;45.90;;;;;;10328977;28;853;-81
2023/04/09 22:18:39;;;;;;;;;;;19.00;45.80;;;;;;10328205;28;844;-81
2023/04/09 22:23:35;;;;;;;;;;;19.10;45.80;;;;;;10327811;28;1959;-81
2023/04/09 22:28:30;;;;;;;;;;;19.10;45.70;;;;;;10328326;28;755;-81
2023/04/09 22:33:25;;;;;;;;;;;19.10;45.70;;;;;;10328041;28;873;-81
2023/04/09 22:38:21;;;;;;;;;;;19.10;45.70;;;;;;10328188;28;846;-81
2023/04/09 22:43:17;;;;;;;;;;;19.10;45.80;;;;;;10327087;28;1951;-81
2023/04/09 22:48:12;;;;;;;;;;;19.10;45.80;;;;;;10326932;28;862;-81
2023/04/09 22:53:07;;;;;;;;;;;19.10;45.80;;;;;;10327384;28;936;-81
2023/04/09 22:58:03;;;;;;;;;;;19.10;45.80;;;;;;10326657;28;1390;-81
2023/04/09 23:02:58;;;;;;;;;;;19.00;45.70;;;;;;10326924;28;1906;-81
2023/04/09 23:07:54;;;;;;;;;;;19.00;45.70;;;;;;10309613;28;1585;-81
2023/04/09 23:12:49;;;;;;;;;;;19.00;45.70;;;;;;10326196;28;824;-81
2023/04/09 23:17:44;;;;;;;;;;;19.10;45.70;;;;;;10307856;28;892;-81
2023/04/09 23:22:40;;;;;;;;;;;19.00;45.70;;;;;;10326020;28;870;-82
2023/04/09 23:27:36;;;;;;;;;;;19.00;45.70;;;;;;10325804;28;1894;-82
2023/04/09 23:32:31;;;;;;;;;;;19.10;45.70;;;;;;10325101;28;844;-81
2023/04/09 23:37:27;;;;;;;;;;;19.10;45.70;;;;;;10326138;28;841;-81
2023/04/09 23:42:22;;;;;;;;;;;19.10;45.70;;;;;;10325085;28;848;-81
2023/04/09 23:47:17;;;;;;;;;;;19.00;45.80;;;;;;10325270;28;1905;-81
2023/04/09 23:52:13;;;;;;;;;;;19.10;45.90;;;;;;10324912;28;1007;-81
2023/04/09 23:57:08;;;;;;;;;;;19.10;45.80;;;;;;10325311;28;1159;-81
